Time;durP1;ratioP1;P1;durP2;ratioP2;P2;SDS_P1;SDS_P2;PMS_P1;PMS_P2;Temp;Humidity;BMP_temperature;BMP_pressure;BME280_temperature;BME280_humidity;BME280_pressure;Samples;Min_cycle;Max_cycle;Signal;HPM_P1;HPM_P2
2023/08/07 00:00:52;;;;;;;6.95;3.30;;;;;;;;;;4991153;28;20045;-75
2023/08/07 00:03:25;;;;;;;7.30;3.25;;;;;;;;;;4991822;28;20081;-76
2023/08/07 00:05:53;;;;;;;5.30;3.22;;;;;;;;;;4988212;28;20472;-66
2023/08/07 00:08:20;;;;;;;3.65;2.47;;;;;;;;;;4999091;28;20086;-66
2023/08/07 00:10:53;;;;;;;2.83;2.55;;;;;;;;;;4993750;28;20442;-67
2023/08/07 00:13:21;;;;;;;4.40;2.35;;;;;;;;;;4995612;28;20057;-66
2023/08/07 00:15:54;;;;;;;3.13;2.53;;;;;;;;;;4995370;28;20081;-53
2023/08/07 00:18:22;;;;;;;4.03;2.65;;;;;;;;;;4991053;28;20420;-67
2023/08/07 00:20:49;;;;;;;4.00;2.47;;;;;;;;;;4993740;28;20111;-67
2023/08/07 00:23:22;;;;;;;4.60;2.70;;;;;;;;;;4991327;28;20054;-67
2023/08/07 00:25:50;;;;;;;4.05;2.35;;;;;;;;;;4995060;28;20117;-68
2023/08/07 00:28:24;;;;;;;6.38;2.53;;;;;;;;;;4992465;28;20545;-66
2023/08/07 00:30:51;;;;;;;4.07;2.80;;;;;;;;;;4989962;28;20105;-65
2023/08/07 00:33:18;;;;;;;4.15;2.50;;;;;;;;;;4993145;28;20743;-59
2023/08/07 00:35:51;;;;;;;8.43;3.45;;;;;;;;;;4990136;28;21199;-59
2023/08/07 00:38:18;;;;;;;3.78;2.40;;;;;;;;;;4993972;28;20574;-59
2023/08/07 00:40:52;;;;;;;5.63;2.70;;;;;;;;;;4997456;28;20057;-59
2023/08/07 00:43:20;;;;;;;10.50;2.95;;;;;;;;;;4995021;28;20054;-59
2023/08/07 00:45:47;;;;;;;4.82;2.88;;;;;;;;;;4994271;28;20201;-59
2023/08/07 00:48:29;;;;;;;4.40;2.60;;;;;;;;;;4994456;28;21019;-59
2023/08/07 00:50:57;;;;;;;4.55;2.53;;;;;;;;;;4995943;28;20675;-59
2023/08/07 00:53:30;;;;;;;4.95;2.53;;;;;;;;;;4992569;28;20589;-59
2023/08/07 00:55:58;;;;;;;2.90;2.10;;;;;;;;;;4994826;28;20050;-59
2023/08/07 00:58:27;;;;;;;4.10;2.47;;;;;;;;;;4996458;28;20113;-59
2023/08/07 01:01:00;;;;;;;6.30;2.63;;;;;;;;;;4994324;28;20399;-59
2023/08/07 01:03:27;;;;;;;5.25;2.70;;;;;;;;;;4987421;28;20046;-67
2023/08/07 01:06:02;;;;;;;4.40;2.42;;;;;;;;;;4995019;28;20506;-67
2023/08/07 01:08:29;;;;;;;6.00;2.40;;;;;;;;;;4995428;28;20061;-67
2023/08/07 01:11:06;;;;;;;11.48;2.50;;;;;;;;;;4996928;28;20050;-67
2023/08/07 01:13:39;;;;;;;4.05;2.30;;;;;;;;;;4996513;28;20061;-55
2023/08/07 01:16:13;;;;;;;2.88;2.30;;;;;;;;;;4994556;28;20096;-78
2023/08/07 01:18:47;;;;;;;4.00;2.15;;;;;;;;;;4986856;28;20512;-78
2023/08/07 01:21:17;;;;;;;5.32;2.33;;;;;;;;;;4993220;28;20058;-78
2023/08/07 01:23:46;;;;;;;5.40;2.85;;;;;;;;;;4989893;28;20058;-78
2023/08/07 01:26:20;;;;;;;4.35;2.22;;;;;;;;;;4993235;28;20140;-78
2023/08/07 01:28:54;;;;;;;2.40;1.88;;;;;;;;;;4996045;28;20527;-78
2023/08/07 01:31:29;;;;;;;4.50;2.10;;;;;;;;;;4994525;28;20049;-67
2023/08/07 01:34:03;;;;;;;3.47;2.03;;;;;;;;;;4989241;28;20073;-66
2023/08/07 01:36:39;;;;;;;4.38;2.13;;;;;;;;;;4986781;28;20499;-67
2023/08/07 01:39:06;;;;;;;2.53;1.77;;;;;;;;;;4990880;28;20057;-66
2023/08/07 01:41:34;;;;;;;5.50;1.90;;;;;;;;;;4995713;28;20052;-67
2023/08/07 01:44:07;;;;;;;3.22;2.25;;;;;;;;;;4994669;28;20602;-59
2023/08/07 01:46:41;;;;;;;2.85;2.10;;;;;;;;;;4999741;28;20139;-59
2023/08/07 01:49:15;;;;;;;2.83;2.10;;;;;;;;;;4997211;28;20082;-58
2023/08/07 01:51:43;;;;;;;2.30;1.83;;;;;;;;;;4996795;28;20054;-59
2023/08/07 01:54:10;;;;;;;3.42;2.08;;;;;;;;;;4990349;28;20050;-59
2023/08/07 01:56:44;;;;;;;5.53;1.98;;;;;;;;;;5000860;28;20057;-59
2023/08/07 01:59:11;;;;;;;5.88;1.90;;;;;;;;;;4995395;28;20582;-75
2023/08/07 02:01:38;;;;;;;3.08;2.03;;;;;;;;;;4993025;28;20140;-76
2023/08/07 02:04:12;;;;;;;3.28;1.80;;;;;;;;;;4995078;28;20065;-76
2023/08/07 02:06:39;;;;;;;2.10;1.40;;;;;;;;;;4994872;28;20145;-77
2023/08/07 02:09:06;;;;;;;4.03;1.67;;;;;;;;;;4995880;28;20503;-59
2023/08/07 02:11:40;;;;;;;3.08;1.73;;;;;;;;;;4997996;28;20113;-55
2023/08/07 02:14:07;;;;;;;2.38;1.38;;;;;;;;;;4997443;28;20081;-55
2023/08/07 02:16:40;;;;;;;1.45;1.35;;;;;;;;;;4998668;28;20518;-55
2023/08/07 02:19:08;;;;;;;1.92;1.50;;;;;;;;;;4997746;28;20554;-56
2023/08/07 02:21:35;;;;;;;3.13;1.80;;;;;;;;;;4997761;28;20053;-57
2023/08/07 02:24:08;;;;;;;1.52;1.33;;;;;;;;;;4988589;28;20570;-56
2023/08/07 02:26:36;;;;;;;3.45;1.45;;;;;;;;;;4995110;28;20066;-56
2023/08/07 02:29:03;;;;;;;9.13;2.05;;;;;;;;;;4998643;28;20507;-59
2023/08/07 02:31:37;;;;;;;3.83;1.63;;;;;;;;;;4992659;28;20068;-60
2023/08/07 02:34:04;;;;;;;4.45;1.55;;;;;;;;;;4992716;28;20073;-60
2023/08/07 02:36:38;;;;;;;6.43;1.85;;;;;;;;;;4996657;28;20058;-59
2023/08/07 02:39:06;;;;;;;2.15;1.92;;;;;;;;;;4992943;28;20460;-57
2023/08/07 02:41:33;;;;;;;1.58;1.27;;;;;;;;;;4998796;28;20054;-57
2023/08/07 02:44:07;;;;;;;2.38;1.65;;;;;;;;;;4999589;28;20132;-55
2023/08/07 02:46:46;;;;;;;3.92;1.60;;;;;;;;;;4995788;28;20152;-52
2023/08/07 02:49:21;;;;;;;2.30;1.40;;;;;;;;;;4989691;28;20136;-57
2023/08/07 02:51:48;;;;;;;2.17;1.60;;;;;;;;;;4996095;28;20053;-57
2023/08/07 02:54:16;;;;;;;5.50;1.65;;;;;;;;;;4991071;28;20050;-54
2023/08/07 02:56:49;;;;;;;3.03;1.30;;;;;;;;;;4995069;28;20519;-55
2023/08/07 02:59:17;;;;;;;1.40;1.30;;;;;;;;;;5000115;28;20055;-54
2023/08/07 03:01:51;;;;;;;3.35;1.30;;;;;;;;;;4994252;28;20068;-57
2023/08/07 03:04:18;;;;;;;1.50;1.30;;;;;;;;;;4997024;28;20435;-55
2023/08/07 03:06:45;;;;;;;1.95;1.45;;;;;;;;;;4994008;28;20538;-59
2023/08/07 03:09:19;;;;;;;2.10;1.38;;;;;;;;;;4992913;28;20081;-52
2023/08/07 03:11:46;;;;;;;2.75;1.38;;;;;;;;;;4993186;28;20054;-52
2023/08/07 03:14:19;;;;;;;1.50;1.40;;;;;;;;;;4998455;28;20065;-53
2023/08/07 03:16:47;;;;;;;2.45;1.40;;;;;;;;;;4996055;28;20061;-50
2023/08/07 03:19:14;;;;;;;10.07;1.58;;;;;;;;;;4993548;28;20050;-53
2023/08/07 03:21:47;;;;;;;2.72;1.30;;;;;;;;;;4994408;28;20058;-52
2023/08/07 03:24:15;;;;;;;1.70;1.33;;;;;;;;;;4995781;28;20053;-60
2023/08/07 03:26:42;;;;;;;6.43;1.60;;;;;;;;;;4993219;28;20098;-59
2023/08/07 03:29:15;;;;;;;1.58;1.38;;;;;;;;;;4979112;28;20113;-59
2023/08/07 03:31:43;;;;;;;1.55;1.27;;;;;;;;;;4991775;28;20113;-59
2023/08/07 03:34:16;;;;;;;4.47;1.45;;;;;;;;;;4975063;28;20062;-75
2023/08/07 03:36:44;;;;;;;3.63;1.40;;;;;;;;;;4996535;28;20112;-59
2023/08/07 03:39:12;;;;;;;1.35;1.25;;;;;;;;;;4987866;28;20496;-75
2023/08/07 03:41:46;;;;;;;1.38;1.20;;;;;;;;;;4994310;28;20064;-75
2023/08/07 03:44:13;;;;;;;4.45;1.52;;;;;;;;;;4996535;28;20066;-75
2023/08/07 03:46:40;;;;;;;6.82;1.73;;;;;;;;;;4996494;28;20117;-75
2023/08/07 03:49:20;;;;;;;51.47;3.15;;;;;;;;;;4994226;28;20058;-75
2023/08/07 03:51:47;;;;;;;3.00;1.60;;;;;;;;;;4989328;28;20050;-76
2023/08/07 03:54:29;;;;;;;1.63;1.38;;;;;;;;;;4994054;28;20485;-60
2023/08/07 03:56:58;;;;;;;6.57;2.03;;;;;;;;;;4995235;28;20054;-60
2023/08/07 03:59:32;;;;;;;1.48;1.20;;;;;;;;;;4990590;28;20066;-59
2023/08/07 04:02:00;;;;;;;4.65;1.92;;;;;;;;;;4993872;28;20064;-58
2023/08/07 04:04:27;;;;;;;43.00;2.88;;;;;;;;;;4991785;28;20051;-60
2023/08/07 04:07:00;;;;;;;1.50;1.27;;;;;;;;;;5000308;28;20060;-57
2023/08/07 04:09:28;;;;;;;2.30;1.60;;;;;;;;;;4995433;28;20058;-57
2023/08/07 04:11:55;;;;;;;;;;;;;;;;;;4996532;28;20527;-55
2023/08/07 04:14:28;;;;;;;5.32;1.50;;;;;;;;;;4997257;28;20325;-57
2023/08/07 04:16:55;;;;;;;4.50;1.92;;;;;;;;;;4994864;28;20041;-56
2023/08/07 04:19:30;;;;;;;3.88;2.28;;;;;;;;;;4994080;28;20519;-56
2023/08/07 04:21:57;;;;;;;58.53;5.00;;;;;;;;;;4996560;28;20513;-59
2023/08/07 04:24:24;;;;;;;4.82;2.58;;;;;;;;;;4993803;28;21087;-59
2023/08/07 04:27:01;;;;;;;3.53;1.60;;;;;;;;;;4993582;28;20455;-59
2023/08/07 04:29:29;;;;;;;2.08;1.88;;;;;;;;;;5003199;28;20123;-60
2023/08/07 04:31:56;;;;;;;3.35;2.05;;;;;;;;;;4993182;28;20117;-74
2023/08/07 04:34:29;;;;;;;4.95;2.20;;;;;;;;;;4991717;28;20050;-52
2023/08/07 04:36:58;;;;;;;4.82;2.45;;;;;;;;;;4995430;28;20113;-48
2023/08/07 04:39:36;;;;;;;5.78;2.83;;;;;;;;;;4994131;28;20054;-52
2023/08/07 04:42:04;;;;;;;10.70;2.75;;;;;;;;;;4992734;28;20457;-52
2023/08/07 04:44:31;;;;;;;5.00;2.70;;;;;;;;;;4997553;28;20560;-52
2023/08/07 04:47:11;;;;;;;8.57;3.10;;;;;;;;;;4996444;28;20066;-51
2023/08/07 04:49:39;;;;;;;8.07;2.72;;;;;;;;;;4991346;28;20528;-53
2023/08/07 04:52:13;;;;;;;5.00;2.88;;;;;;;;;;4990738;28;20482;-53
2023/08/07 04:54:52;;;;;;;8.93;2.95;;;;;;;;;;4996819;28;20631;-49
2023/08/07 04:57:26;;;;;;;11.27;3.58;;;;;;;;;;4998408;28;20050;-53
2023/08/07 04:59:53;;;;;;;7.22;2.80;;;;;;;;;;4982037;28;20403;-54
2023/08/07 05:02:20;;;;;;;4.18;2.88;;;;;;;;;;4989991;28;20054;-54
2023/08/07 05:04:53;;;;;;;13.80;3.05;;;;;;;;;;4990303;28;20046;-65
2023/08/07 05:07:21;;;;;;;6.82;3.10;;;;;;;;;;4993492;28;20058;-69
2023/08/07 05:09:54;;;;;;;6.72;2.40;;;;;;;;;;4987521;28;20546;-66
2023/08/07 05:12:22;;;;;;;11.40;2.65;;;;;;;;;;4992190;28;20343;-66
2023/08/07 05:14:49;;;;;;;152.80;9.70;;;;;;;;;;4995470;28;20053;-66
2023/08/07 05:17:24;;;;;;;8.35;3.03;;;;;;;;;;5001281;28;20080;-67
2023/08/07 05:19:51;;;;;;;9.77;3.25;;;;;;;;;;4992193;28;20054;-54
2023/08/07 05:22:25;;;;;;;109.70;8.30;;;;;;;;;;4997512;28;20050;-54
2023/08/07 05:24:52;;;;;;;8.38;3.60;;;;;;;;;;4997068;28;20527;-49
2023/08/07 05:27:19;;;;;;;29.13;5.53;;;;;;;;;;5001321;28;20068;-51
2023/08/07 05:29:52;;;;;;;7.88;3.67;;;;;;;;;;4997713;28;20054;-61
2023/08/07 05:32:20;;;;;;;23.90;4.45;;;;;;;;;;4998927;28;20507;-66
2023/08/07 05:34:53;;;;;;;12.65;4.38;;;;;;;;;;4988776;28;20133;-66
2023/08/07 05:37:21;;;;;;;8.82;3.38;;;;;;;;;;4991659;28;20050;-66
2023/08/07 05:39:55;;;;;;;14.10;4.90;;;;;;;;;;4989875;28;20054;-66
2023/08/07 05:42:22;;;;;;;9.52;3.85;;;;;;;;;;4992986;28;20053;-66
2023/08/07 05:44:49;;;;;;;8.30;3.55;;;;;;;;;;4998142;28;20077;-66
2023/08/07 05:47:36;;;;;;;11.40;4.22;;;;;;;;;;4997401;28;20065;-50
2023/08/07 05:50:10;;;;;;;7.63;3.58;;;;;;;;;;4996175;28;20061;-51
2023/08/07 05:52:45;;;;;;;22.20;4.55;;;;;;;;;;4993345;28;20116;-50
2023/08/07 05:55:12;;;;;;;8.93;3.13;;;;;;;;;;4995975;28;20109;-55
2023/08/07 05:57:39;;;;;;;8.13;4.15;;;;;;;;;;4995547;28;20054;-60
2023/08/07 06:00:17;;;;;;;14.77;4.30;;;;;;;;;;4990532;28;20068;-61
2023/08/07 06:02:44;;;;;;;8.70;2.75;;;;;;;;;;4997389;28;20065;-61
2023/08/07 06:05:13;;;;;;;6.45;3.05;;;;;;;;;;4994000;28;20085;-61
2023/08/07 06:07:48;;;;;;;4.22;2.90;;;;;;;;;;4994295;28;20053;-61
2023/08/07 06:10:15;;;;;;;5.30;3.00;;;;;;;;;;4977830;28;20058;-61
2023/08/07 06:12:49;;;;;;;3.53;2.40;;;;;;;;;;4992378;28;20061;-62
2023/08/07 06:15:16;;;;;;;8.27;3.05;;;;;;;;;;4989647;28;20172;-60
2023/08/07 06:17:43;;;;;;;9.40;3.50;;;;;;;;;;4994100;28;20113;-59
2023/08/07 06:20:17;;;;;;;13.32;3.88;;;;;;;;;;4994698;28;20057;-59
2023/08/07 06:22:44;;;;;;;2.85;2.30;;;;;;;;;;4999161;28;20058;-59
2023/08/07 06:25:19;;;;;;;3.60;2.60;;;;;;;;;;4994605;28;20108;-61
2023/08/07 06:27:46;;;;;;;2.75;2.08;;;;;;;;;;4994696;28;20544;-64
2023/08/07 06:30:14;;;;;;;5.95;2.28;;;;;;;;;;4993043;28;20120;-63
2023/08/07 06:32:48;;;;;;;3.83;2.00;;;;;;;;;;4993286;28;20057;-65
2023/08/07 06:35:15;;;;;;;;;;;;;;;;;;4994376;28;20522;-65
2023/08/07 06:37:42;;;;;;;8.35;2.53;;;;;;;;;;4996002;28;20043;-65
2023/08/07 06:40:16;;;;;;;3.90;2.38;;;;;;;;;;4993530;28;20057;-65
2023/08/07 06:42:43;;;;;;;2.72;2.40;;;;;;;;;;4992536;28;20574;-65
2023/08/07 06:45:18;;;;;;;3.30;2.58;;;;;;;;;;4996133;28;20112;-51
2023/08/07 06:47:51;;;;;;;3.83;2.67;;;;;;;;;;4995517;28;20057;-54
2023/08/07 06:50:25;;;;;;;4.53;2.30;;;;;;;;;;4993423;28;20049;-52
2023/08/07 06:52:59;;;;;;;44.45;5.57;;;;;;;;;;4996244;28;20086;-55
2023/08/07 06:55:26;;;;;;;;;;;;;;;;;;4992182;28;20597;-74
2023/08/07 06:58:00;;;;;;;10.82;3.28;;;;;;;;;;4994106;28;19929;-53
2023/08/07 07:00:27;;;;;;;5.50;2.92;;;;;;;;;;4994058;28;20120;-55
2023/08/07 07:02:54;;;;;;;4.38;2.60;;;;;;;;;;4994490;28;20062;-50
2023/08/07 07:05:28;;;;;;;5.53;2.78;;;;;;;;;;4996458;28;20057;-51
2023/08/07 07:07:55;;;;;;;3.65;2.97;;;;;;;;;;4992555;28;20061;-50
2023/08/07 07:10:28;;;;;;;5.25;2.60;;;;;;;;;;4995445;28;20054;-53
2023/08/07 07:12:58;;;;;;;3.35;2.63;;;;;;;;;;4995977;28;20498;-60
2023/08/07 07:15:32;;;;;;;3.05;2.40;;;;;;;;;;4998727;28;21628;-60
2023/08/07 07:18:05;;;;;;;3.08;2.65;;;;;;;;;;4992012;28;20049;-59
2023/08/07 07:20:33;;;;;;;4.80;2.90;;;;;;;;;;4994061;28;20089;-60
2023/08/07 07:23:07;;;;;;;5.18;2.70;;;;;;;;;;4995607;28;20694;-53
2023/08/07 07:25:34;;;;;;;3.20;2.35;;;;;;;;;;4992462;28;20053;-60
2023/08/07 07:28:01;;;;;;;3.30;2.90;;;;;;;;;;4995010;28;20080;-60
2023/08/07 07:30:34;;;;;;;8.23;3.83;;;;;;;;;;4989533;28;20197;-58
2023/08/07 07:33:02;;;;;;;4.72;3.00;;;;;;;;;;4997767;28;20542;-58
2023/08/07 07:35:39;;;;;;;4.97;3.45;;;;;;;;;;4992724;28;20058;-58
2023/08/07 07:38:07;;;;;;;4.90;3.00;;;;;;;;;;4987943;28;20057;-58
2023/08/07 07:40:37;;;;;;;5.40;2.90;;;;;;;;;;4992638;28;20114;-57
2023/08/07 07:43:11;;;;;;;4.35;3.05;;;;;;;;;;4995543;28;20062;-54
2023/08/07 07:45:38;;;;;;;5.75;3.53;;;;;;;;;;4993077;28;20105;-50
2023/08/07 07:48:18;;;;;;;5.95;3.60;;;;;;;;;;5003495;28;20057;-55
2023/08/07 07:50:45;;;;;;;5.93;3.60;;;;;;;;;;4997823;28;20050;-59
2023/08/07 07:53:20;;;;;;;8.55;3.20;;;;;;;;;;4994449;28;20068;-54
2023/08/07 07:55:49;;;;;;;4.35;3.10;;;;;;;;;;4995355;28;20054;-58
2023/08/07 07:58:16;;;;;;;;;;;;;;;;;;4993877;28;20623;-57
2023/08/07 08:00:53;;;;;;;5.63;3.75;;;;;;;;;;4989012;28;19930;-57
2023/08/07 08:03:21;;;;;;;9.25;4.00;;;;;;;;;;4992762;28;20471;-57
2023/08/07 08:05:55;;;;;;;7.35;3.70;;;;;;;;;;4989762;28;20060;-55
2023/08/07 08:08:22;;;;;;;9.20;4.13;;;;;;;;;;4994021;28;20056;-61
2023/08/07 08:10:51;;;;;;;;;;;;;;;;;;4994995;28;20478;-61
2023/08/07 08:13:27;;;;;;;9.00;4.57;;;;;;;;;;4993930;28;19926;-61
2023/08/07 08:15:54;;;;;;;7.45;4.82;;;;;;;;;;4996200;28;20084;-60
2023/08/07 08:18:21;;;;;;;8.90;4.78;;;;;;;;;;4995472;28;20074;-49
2023/08/07 08:20:55;;;;;;;10.90;5.78;;;;;;;;;;4996153;28;20050;-53
2023/08/07 08:23:22;;;;;;;7.32;5.18;;;;;;;;;;4989390;28;20870;-61
2023/08/07 08:25:56;;;;;;;7.60;5.72;;;;;;;;;;4998914;28;20058;-61
2023/08/07 08:28:38;;;;;;;11.18;6.50;;;;;;;;;;4994045;28;20060;-61
2023/08/07 08:31:21;;;;;;;10.75;6.88;;;;;;;;;;4991691;28;20058;-61
2023/08/07 08:33:48;;;;;;;11.02;7.45;;;;;;;;;;4987873;28;20124;-60
2023/08/07 08:36:21;;;;;;;8.50;6.30;;;;;;;;;;4989664;28;20109;-61
2023/08/07 08:38:49;;;;;;;8.40;6.35;;;;;;;;;;4992072;28;20487;-54
2023/08/07 08:41:23;;;;;;;12.68;6.70;;;;;;;;;;4988272;28;20143;-55
2023/08/07 08:43:50;;;;;;;;;;;;;;;;;;4993778;28;20522;-54
2023/08/07 08:46:20;;;;;;;7.85;6.10;;;;;;;;;;4989656;28;20099;-52
2023/08/07 08:49:02;;;;;;;9.85;5.88;;;;;;;;;;4993449;28;20058;-57
2023/08/07 08:51:29;;;;;;;12.38;5.97;;;;;;;;;;4994928;28;20121;-76
2023/08/07 08:54:03;;;;;;;9.73;6.30;;;;;;;;;;4996397;28;20077;-76
2023/08/07 08:56:31;;;;;;;13.65;5.97;;;;;;;;;;4993251;28;20034;-76
2023/08/07 08:58:58;;;;;;;7.95;6.05;;;;;;;;;;4990234;28;20128;-76
2023/08/07 09:01:33;;;;;;;11.52;5.50;;;;;;;;;;4996101;28;20085;-76
2023/08/07 09:04:00;;;;;;;10.13;6.63;;;;;;;;;;4991067;28;20064;-76
2023/08/07 09:06:34;;;;;;;9.73;5.65;;;;;;;;;;4993403;28;20062;-59
2023/08/07 09:09:02;;;;;;;7.70;5.75;;;;;;;;;;4995451;28;20054;-58
2023/08/07 09:11:29;;;;;;;;;;;;;;;;;;4990702;28;20140;-59
2023/08/07 09:14:03;;;;;;;11.20;6.10;;;;;;;;;;4983183;28;19968;-59
2023/08/07 09:16:31;;;;;;;10.73;6.68;;;;;;;;;;4989902;28;20061;-62
2023/08/07 09:19:04;;;;;;;7.03;5.90;;;;;;;;;;4992132;28;20068;-52
2023/08/07 09:21:39;;;;;;;6.57;5.65;;;;;;;;;;4996520;28;20050;-52
2023/08/07 09:24:06;;;;;;;7.32;6.55;;;;;;;;;;4994734;28;20054;-52
2023/08/07 09:26:45;;;;;;;9.60;6.78;;;;;;;;;;4987915;28;20057;-53
2023/08/07 09:29:12;;;;;;;7.50;6.28;;;;;;;;;;4989601;28;20116;-53
2023/08/07 09:31:47;;;;;;;11.23;6.38;;;;;;;;;;4989176;28;20061;-51
2023/08/07 09:34:17;;;;;;;8.68;6.68;;;;;;;;;;4985534;28;20569;-52
2023/08/07 09:36:45;;;;;;;10.90;6.90;;;;;;;;;;4987033;28;20063;-55
2023/08/07 09:39:25;;;;;;;8.98;6.28;;;;;;;;;;4983947;28;20593;-54
2023/08/07 09:41:55;;;;;;;9.75;5.65;;;;;;;;;;4985659;28;20049;-52
2023/08/07 09:44:38;;;;;;;6.63;5.90;;;;;;;;;;4993421;28;20057;-59
2023/08/07 09:47:12;;;;;;;5.70;4.80;;;;;;;;;;4988821;28;20184;-56
2023/08/07 09:49:47;;;;;;;5.32;4.82;;;;;;;;;;4997101;28;20431;-57
2023/08/07 09:52:21;;;;;;;9.68;5.25;;;;;;;;;;4991011;28;20085;-57
2023/08/07 09:54:57;;;;;;;8.15;4.88;;;;;;;;;;4988426;28;20543;-57
2023/08/07 09:57:32;;;;;;;5.13;4.60;;;;;;;;;;4996506;28;20589;-54
2023/08/07 10:00:00;;;;;;;7.28;4.55;;;;;;;;;;4990578;28;20518;-57
2023/08/07 10:02:34;;;;;;;4.70;4.28;;;;;;;;;;4995351;28;20121;-60
2023/08/07 10:05:04;;;;;;;5.63;4.80;;;;;;;;;;4997115;28;20518;-60
2023/08/07 10:07:31;;;;;;;7.60;4.45;;;;;;;;;;4999475;28;20144;-60
2023/08/07 10:10:09;;;;;;;5.15;4.60;;;;;;;;;;4989431;28;20076;-60
2023/08/07 10:12:38;;;;;;;4.97;4.28;;;;;;;;;;4998709;28;20056;-60
2023/08/07 10:15:13;;;;;;;5.07;4.38;;;;;;;;;;4998923;28;20116;-49
2023/08/07 10:17:41;;;;;;;6.50;4.40;;;;;;;;;;4997048;28;20046;-56
2023/08/07 10:20:09;;;;;;;6.30;3.90;;;;;;;;;;4998167;28;20065;-55
2023/08/07 10:22:43;;;;;;;8.93;4.47;;;;;;;;;;4992482;28;20566;-56
2023/08/07 10:25:10;;;;;;;4.43;3.97;;;;;;;;;;4989523;28;20454;-57
2023/08/07 10:27:44;;;;;;;4.53;4.03;;;;;;;;;;4991089;28;20522;-58
2023/08/07 10:30:14;;;;;;;;;;;;;;;;;;4997268;28;20060;-58
2023/08/07 10:32:43;;;;;;;6.30;3.90;;;;;;;;;;4994262;28;20406;-60
2023/08/07 10:35:43;;;;;;;4.60;3.00;;;;;;;;;;4981499;28;20061;-61
2023/08/07 10:38:11;;;;;;;4.63;3.40;;;;;;;;;;4992499;28;20061;-60
2023/08/07 10:41:03;;;;;;;4.32;3.75;;;;;;;;;;4997459;28;20636;-58
2023/08/07 10:43:31;;;;;;;5.03;3.33;;;;;;;;;;4999779;28;20070;-63
2023/08/07 10:46:12;;;;;;;4.03;3.50;;;;;;;;;;4995984;28;21590;-58
2023/08/07 10:48:49;;;;;;;3.60;3.30;;;;;;;;;;4996457;28;20432;-58
2023/08/07 10:51:30;;;;;;;3.92;3.40;;;;;;;;;;4996992;28;20062;-58
2023/08/07 10:54:00;;;;;;;5.25;3.50;;;;;;;;;;4996722;28;20781;-57
2023/08/07 10:56:36;;;;;;;4.32;3.92;;;;;;;;;;4997025;28;20081;-57
2023/08/07 10:59:10;;;;;;;4.57;3.75;;;;;;;;;;4994979;28;20064;-51
2023/08/07 11:01:51;;;;;;;7.40;3.65;;;;;;;;;;4993980;28;20041;-51
2023/08/07 11:04:18;;;;;;;4.70;4.28;;;;;;;;;;4994492;28;20059;-50
2023/08/07 11:06:52;;;;;;;5.10;4.60;;;;;;;;;;4993317;28;20085;-52
2023/08/07 11:09:19;;;;;;;5.28;4.25;;;;;;;;;;4995286;28;20265;-64
2023/08/07 11:11:47;;;;;;;4.85;4.45;;;;;;;;;;4995380;28;20124;-59
2023/08/07 11:14:22;;;;;;;5.25;4.75;;;;;;;;;;4993404;28;20053;-58
2023/08/07 11:16:49;;;;;;;5.72;4.40;;;;;;;;;;4992549;28;20078;-57
2023/08/07 11:19:23;;;;;;;8.77;5.25;;;;;;;;;;4997689;28;20062;-59
2023/08/07 11:21:51;;;;;;;5.70;5.20;;;;;;;;;;4998915;28;20062;-59
2023/08/07 11:24:21;;;;;;;5.57;5.05;;;;;;;;;;4995055;28;20553;-58
2023/08/07 11:26:57;;;;;;;5.45;4.95;;;;;;;;;;4994515;28;20054;-58
2023/08/07 11:29:25;;;;;;;7.40;5.70;;;;;;;;;;4994712;28;20838;-68
2023/08/07 11:31:59;;;;;;;7.45;4.93;;;;;;;;;;4996211;28;20050;-68
2023/08/07 11:34:26;;;;;;;8.07;5.65;;;;;;;;;;5000471;28;20061;-68
2023/08/07 11:36:55;;;;;;;7.68;6.03;;;;;;;;;;4996149;28;20058;-68
2023/08/07 11:39:29;;;;;;;9.15;6.00;;;;;;;;;;4994254;28;20062;-67
2023/08/07 11:41:56;;;;;;;5.43;4.88;;;;;;;;;;4993831;28;20081;-58
2023/08/07 11:44:33;;;;;;;7.10;5.45;;;;;;;;;;4996522;28;20054;-59
2023/08/07 11:47:13;;;;;;;6.05;5.45;;;;;;;;;;4999162;28;20056;-58
2023/08/07 11:49:48;;;;;;;6.25;5.65;;;;;;;;;;4995645;28;20935;-58
2023/08/07 11:52:16;;;;;;;;;;;;;;;;;;4988224;28;20130;-58
2023/08/07 11:54:47;;;;;;;6.20;5.63;;;;;;;;;;4996979;28;19937;-59
2023/08/07 11:57:21;;;;;;;7.75;6.32;;;;;;;;;;4998387;28;20077;-59
2023/08/07 11:59:50;;;;;;;9.63;6.40;;;;;;;;;;4993718;28;20050;-58
2023/08/07 12:02:25;;;;;;;7.63;6.22;;;;;;;;;;4992933;28;20062;-58
2023/08/07 12:04:57;;;;;;;7.85;6.40;;;;;;;;;;4989763;28;20042;-59
2023/08/07 12:07:31;;;;;;;8.02;5.93;;;;;;;;;;4993203;28;21764;-51
2023/08/07 12:10:02;;;;;;;8.23;6.65;;;;;;;;;;4991752;28;20054;-59
2023/08/07 12:12:39;;;;;;;11.45;6.93;;;;;;;;;;4993707;28;20161;-59
2023/08/07 12:15:09;;;;;;;8.10;7.40;;;;;;;;;;4995209;28;20617;-60
2023/08/07 12:17:43;;;;;;;8.65;6.82;;;;;;;;;;4992753;28;20054;-59
2023/08/07 12:20:11;;;;;;;;;;;;;;;;;;4993109;28;20056;-59
2023/08/07 12:22:38;;;;;;;7.65;6.47;;;;;;;;;;4992480;28;20322;-60
2023/08/07 12:25:12;;;;;;;8.65;7.25;;;;;;;;;;4994974;28;20065;-58
2023/08/07 12:27:39;;;;;;;10.95;8.10;;;;;;;;;;5001129;28;20116;-58
2023/08/07 12:30:06;;;;;;;8.90;7.05;;;;;;;;;;4996527;28;20557;-58
2023/08/07 12:32:40;;;;;;;8.20;7.40;;;;;;;;;;4996278;28;20058;-58
2023/08/07 12:35:10;;;;;;;;;;;;;;;;;;4993547;28;20450;-54
2023/08/07 12:37:41;;;;;;;10.55;8.65;;;;;;;;;;4993486;28;20469;-71
2023/08/07 12:40:19;;;;;;;8.60;7.03;;;;;;;;;;4993989;28;20054;-51
2023/08/07 12:42:56;;;;;;;15.23;7.88;;;;;;;;;;4991869;28;20123;-53
2023/08/07 12:45:23;;;;;;;9.50;7.93;;;;;;;;;;4993843;28;20143;-51
2023/08/07 12:47:54;;;;;;;11.27;7.20;;;;;;;;;;4991873;28;20137;-53
2023/08/07 12:50:28;;;;;;;8.63;7.80;;;;;;;;;;4995913;28;20534;-50
2023/08/07 12:52:55;;;;;;;11.30;7.95;;;;;;;;;;4994799;28;20057;-61
2023/08/07 12:55:49;;;;;;;10.93;8.02;;;;;;;;;;4995676;28;20519;-60
2023/08/07 12:58:36;;;;;;;12.57;8.88;;;;;;;;;;4991715;28;20544;-60
2023/08/07 13:01:30;;;;;;;10.45;9.35;;;;;;;;;;4990634;28;20070;-61
2023/08/07 13:04:18;;;;;;;9.52;8.25;;;;;;;;;;4994113;28;20050;-60
2023/08/07 13:07:11;;;;;;;12.55;9.35;;;;;;;;;;4993393;28;20478;-59
2023/08/07 13:10:05;;;;;;;11.07;9.70;;;;;;;;;;4994036;28;20050;-58
2023/08/07 13:13:01;;;;;;;11.43;9.27;;;;;;;;;;4992632;28;20054;-57
2023/08/07 13:15:46;;;;;;;14.43;9.38;;;;;;;;;;4997265;28;20046;-58
2023/08/07 13:18:40;;;;;;;10.73;9.60;;;;;;;;;;4997337;28;20546;-58
2023/08/07 13:21:31;;;;;;;11.68;9.38;;;;;;;;;;4991342;28;20085;-60
2023/08/07 13:24:25;;;;;;;10.77;9.35;;;;;;;;;;4992706;28;20532;-60
2023/08/07 13:27:13;;;;;;;9.88;8.48;;;;;;;;;;4995355;28;20585;-60
2023/08/07 13:30:08;;;;;;;18.98;10.43;;;;;;;;;;4992641;28;20122;-60
2023/08/07 13:33:00;;;;;;;11.02;8.73;;;;;;;;;;4991735;28;20442;-58
2023/08/07 13:35:54;;;;;;;11.77;9.93;;;;;;;;;;4994987;28;20046;-60
2023/08/07 13:38:41;;;;;;;15.82;11.02;;;;;;;;;;4995272;28;20606;-60
2023/08/07 13:41:35;;;;;;;10.98;9.88;;;;;;;;;;4997779;28;20066;-60
2023/08/07 13:44:23;;;;;;;15.07;10.07;;;;;;;;;;4997077;28;20058;-60
2023/08/07 13:47:30;;;;;;;14.65;10.85;;;;;;;;;;4999287;28;20053;-60
2023/08/07 13:50:25;;;;;;;16.00;12.32;;;;;;;;;;4995990;28;20057;-60
2023/08/07 13:53:19;;;;;;;15.82;14.18;;;;;;;;;;4996718;28;20523;-61
2023/08/07 13:56:08;;;;;;;30.50;18.23;;;;;;;;;;4996217;28;20077;-60
2023/08/07 13:59:00;;;;;;;27.02;18.02;;;;;;;;;;4993963;28;20057;-60
2023/08/07 14:01:47;;;;;;;26.60;19.00;;;;;;;;;;4996330;28;20046;-57
2023/08/07 14:04:45;;;;;;;23.27;15.45;;;;;;;;;;4997330;28;20542;-57
2023/08/07 14:07:28;;;;;;;28.45;19.08;;;;;;;;;;4997920;28;20049;-54
2023/08/07 14:10:22;;;;;;;31.42;21.15;;;;;;;;;;4993396;28;20404;-54
2023/08/07 14:13:16;;;;;;;33.00;19.23;;;;;;;;;;4996679;28;20277;-58
2023/08/07 14:16:04;;;;;;;78.65;22.05;;;;;;;;;;4997548;28;20050;-58
2023/08/07 14:18:58;;;;;;;20.38;14.20;;;;;;;;;;4997504;28;20050;-51
2023/08/07 14:21:45;;;;;;;13.23;10.48;;;;;;;;;;4993531;28;20136;-47
2023/08/07 14:24:40;;;;;;;13.80;11.18;;;;;;;;;;4998674;28;20101;-48
2023/08/07 14:27:27;;;;;;;16.08;10.63;;;;;;;;;;4985710;28;20502;-49
2023/08/07 14:30:21;;;;;;;14.32;9.98;;;;;;;;;;4998457;28;20058;-64
2023/08/07 14:33:08;;;;;;;14.98;10.50;;;;;;;;;;4994659;28;20477;-59
2023/08/07 14:36:02;;;;;;;13.45;12.02;;;;;;;;;;4993532;28;20239;-59
2023/08/07 14:38:49;;;;;;;13.77;10.60;;;;;;;;;;4998537;28;20054;-60
2023/08/07 14:41:43;;;;;;;16.45;10.50;;;;;;;;;;4995854;28;20049;-59
2023/08/07 14:44:30;;;;;;;13.82;10.75;;;;;;;;;;4998317;28;20507;-60
2023/08/07 14:47:37;;;;;;;14.25;10.00;;;;;;;;;;5001575;28;20082;-60
2023/08/07 14:50:32;;;;;;;13.57;9.57;;;;;;;;;;4993877;28;20061;-60
2023/08/07 14:53:27;;;;;;;11.68;9.80;;;;;;;;;;5000520;28;20050;-60
2023/08/07 14:56:20;;;;;;;15.27;9.82;;;;;;;;;;4999902;28;20105;-60
2023/08/07 14:59:07;;;;;;;10.55;8.90;;;;;;;;;;4992028;28;20590;-59
2023/08/07 15:02:01;;;;;;;8.63;7.03;;;;;;;;;;4995789;28;20163;-59
2023/08/07 15:04:48;;;;;;;10.32;6.85;;;;;;;;;;4991348;28;20140;-60
2023/08/07 15:07:42;;;;;;;10.65;7.70;;;;;;;;;;4993306;28;20061;-60
2023/08/07 15:10:29;;;;;;;8.23;6.90;;;;;;;;;;4994139;28;20054;-60
2023/08/07 15:13:23;;;;;;;10.50;7.45;;;;;;;;;;4998515;28;20490;-60
2023/08/07 15:16:10;;;;;;;6.95;6.00;;;;;;;;;;5000460;28;20059;-56
2023/08/07 15:19:04;;;;;;;8.73;5.97;;;;;;;;;;4995322;28;20078;-57
2023/08/07 15:21:52;;;;;;;8.75;6.35;;;;;;;;;;4994506;28;20191;-54
2023/08/07 15:24:46;;;;;;;8.82;6.25;;;;;;;;;;4991617;28;20109;-57